Andes, New York
Current Conditions -  °F | °C
As of 6:15 AM on Friday 28 Nov 2014 (Local Time) from KMSV Reporting Station
Scattered Clouds Scattered Clouds  
Wind Chill: -9°   Ceiling: Unl
Heat Index: -4°   Visibility: 10mi
Dew Point: -8°   Wind: 9mph
Humidity: 74%   Direction: 310°NW
Pressure: 30.07"   Gusts: NA
Location:  42.19°N, 74.79°W
Report Text: KMSV 281115Z AUTO 31008KT 10SM FEW031 SCT040 SCT050 M04/M08 A3007 RMK AO1
Loading
Personal Weather Stations






























Interactive Weather Map New forecast layout! Learn more

10-Day Weather Forecast

Advertisements
Track Severe Weather on mobile